sensor_id;sensor_type;location;lat;lon;timestamp;P1;durP1;ratioP1;P2;durP2;ratioP2
16735;SDS011;17990;49.548;9.730;2023-08-01T00:00:06;5.67;;;3.07;;
16735;SDS011;17990;49.548;9.730;2023-08-01T00:02:33;4.83;;;3.27;;
16735;SDS011;17990;49.548;9.730;2023-08-01T00:05:00;7.40;;;3.07;;
16735;SDS011;17990;49.548;9.730;2023-08-01T00:07:27;4.97;;;2.80;;
16735;SDS011;17990;49.548;9.730;2023-08-01T00:09:54;5.57;;;2.90;;
16735;SDS011;17990;49.548;9.730;2023-08-01T00:12:23;5.90;;;3.33;;
16735;SDS011;17990;49.548;9.730;2023-08-01T00:14:50;6.50;;;2.93;;
16735;SDS011;17990;49.548;9.730;2023-08-01T00:17:16;5.60;;;2.90;;
16735;SDS011;17990;49.548;9.730;2023-08-01T00:19:43;3.97;;;2.73;;
16735;SDS011;17990;49.548;9.730;2023-08-01T00:22:10;4.20;;;2.77;;
16735;SDS011;17990;49.548;9.730;2023-08-01T00:24:37;8.07;;;3.43;;
16735;SDS011;17990;49.548;9.730;2023-08-01T00:27:04;5.90;;;3.00;;
16735;SDS011;17990;49.548;9.730;2023-08-01T00:29:35;6.93;;;3.20;;
16735;SDS011;17990;49.548;9.730;2023-08-01T00:32:02;4.53;;;2.63;;
16735;SDS011;17990;49.548;9.730;2023-08-01T00:34:29;5.67;;;3.10;;
16735;SDS011;17990;49.548;9.730;2023-08-01T00:36:56;4.13;;;3.00;;
16735;SDS011;17990;49.548;9.730;2023-08-01T00:39:22;4.10;;;2.70;;
16735;SDS011;17990;49.548;9.730;2023-08-01T00:41:49;4.73;;;2.80;;
16735;SDS011;17990;49.548;9.730;2023-08-01T00:44:16;4.13;;;2.70;;
16735;SDS011;17990;49.548;9.730;2023-08-01T00:46:44;5.50;;;2.80;;
16735;SDS011;17990;49.548;9.730;2023-08-01T00:49:11;7.53;;;3.17;;
16735;SDS011;17990;49.548;9.730;2023-08-01T00:51:38;7.13;;;2.77;;
16735;SDS011;17990;49.548;9.730;2023-08-01T00:54:05;4.90;;;2.60;;
16735;SDS011;17990;49.548;9.730;2023-08-01T00:56:32;6.37;;;2.87;;
16735;SDS011;17990;49.548;9.730;2023-08-01T00:58:59;4.63;;;2.80;;
16735;SDS011;17990;49.548;9.730;2023-08-01T01:01:26;7.20;;;3.10;;
16735;SDS011;17990;49.548;9.730;2023-08-01T01:03:54;4.17;;;2.87;;
16735;SDS011;17990;49.548;9.730;2023-08-01T01:06:23;6.00;;;3.17;;
16735;SDS011;17990;49.548;9.730;2023-08-01T01:08:54;6.73;;;2.87;;
16735;SDS011;17990;49.548;9.730;2023-08-01T01:11:21;5.73;;;2.90;;
16735;SDS011;17990;49.548;9.730;2023-08-01T01:13:48;4.27;;;3.00;;
16735;SDS011;17990;49.548;9.730;2023-08-01T01:16:17;7.90;;;3.40;;
16735;SDS011;17990;49.548;9.730;2023-08-01T01:18:44;6.57;;;3.00;;
16735;SDS011;17990;49.548;9.730;2023-08-01T01:21:12;6.83;;;3.10;;
16735;SDS011;17990;49.548;9.730;2023-08-01T01:23:39;3.83;;;2.60;;
16735;SDS011;17990;49.548;9.730;2023-08-01T01:26:06;5.77;;;2.97;;
16735;SDS011;17990;49.548;9.730;2023-08-01T01:28:34;3.50;;;2.60;;
16735;SDS011;17990;49.548;9.730;2023-08-01T01:31:03;5.70;;;2.80;;
16735;SDS011;17990;49.548;9.730;2023-08-01T01:33:30;5.90;;;2.90;;
16735;SDS011;17990;49.548;9.730;2023-08-01T01:35:59;5.37;;;3.20;;
16735;SDS011;17990;49.548;9.730;2023-08-01T01:38:28;3.80;;;2.70;;
16735;SDS011;17990;49.548;9.730;2023-08-01T01:40:54;6.03;;;3.23;;
16735;SDS011;17990;49.548;9.730;2023-08-01T01:43:21;4.83;;;2.90;;
16735;SDS011;17990;49.548;9.730;2023-08-01T01:45:48;4.57;;;2.80;;
16735;SDS011;17990;49.548;9.730;2023-08-01T01:48:14;5.27;;;3.03;;
16735;SDS011;17990;49.548;9.730;2023-08-01T01:50:41;6.93;;;2.90;;
16735;SDS011;17990;49.548;9.730;2023-08-01T01:53:08;4.97;;;3.00;;
16735;SDS011;17990;49.548;9.730;2023-08-01T01:55:36;7.23;;;3.47;;
16735;SDS011;17990;49.548;9.730;2023-08-01T01:58:02;4.67;;;3.00;;
16735;SDS011;17990;49.548;9.730;2023-08-01T02:00:29;5.13;;;3.13;;
16735;SDS011;17990;49.548;9.730;2023-08-01T02:02:56;4.67;;;3.13;;
16735;SDS011;17990;49.548;9.730;2023-08-01T02:05:23;5.33;;;3.23;;
16735;SDS011;17990;49.548;9.730;2023-08-01T02:07:49;6.10;;;2.73;;
16735;SDS011;17990;49.548;9.730;2023-08-01T02:10:16;6.73;;;3.23;;
16735;SDS011;17990;49.548;9.730;2023-08-01T02:12:44;4.77;;;3.27;;
16735;SDS011;17990;49.548;9.730;2023-08-01T02:15:11;5.67;;;3.03;;
16735;SDS011;17990;49.548;9.730;2023-08-01T02:17:38;5.20;;;3.37;;
16735;SDS011;17990;49.548;9.730;2023-08-01T02:20:05;5.13;;;3.30;;
16735;SDS011;17990;49.548;9.730;2023-08-01T02:22:33;5.83;;;3.10;;
16735;SDS011;17990;49.548;9.730;2023-08-01T02:25:00;6.53;;;3.40;;
16735;SDS011;17990;49.548;9.730;2023-08-01T02:27:26;6.17;;;3.20;;
16735;SDS011;17990;49.548;9.730;2023-08-01T02:29:54;4.43;;;2.80;;
16735;SDS011;17990;49.548;9.730;2023-08-01T02:32:21;6.40;;;3.60;;
16735;SDS011;17990;49.548;9.730;2023-08-01T02:34:48;4.40;;;2.90;;
16735;SDS011;17990;49.548;9.730;2023-08-01T02:37:14;6.83;;;3.00;;
16735;SDS011;17990;49.548;9.730;2023-08-01T02:39:41;5.50;;;2.70;;
16735;SDS011;17990;49.548;9.730;2023-08-01T02:42:08;5.27;;;3.30;;
16735;SDS011;17990;49.548;9.730;2023-08-01T02:44:35;5.10;;;3.30;;
16735;SDS011;17990;49.548;9.730;2023-08-01T02:47:03;5.17;;;3.37;;
16735;SDS011;17990;49.548;9.730;2023-08-01T02:49:31;4.00;;;2.97;;
16735;SDS011;17990;49.548;9.730;2023-08-01T02:51:57;5.50;;;2.90;;
16735;SDS011;17990;49.548;9.730;2023-08-01T02:54:24;4.63;;;3.10;;
16735;SDS011;17990;49.548;9.730;2023-08-01T02:56:51;5.93;;;3.00;;
16735;SDS011;17990;49.548;9.730;2023-08-01T02:59:18;7.80;;;3.47;;
16735;SDS011;17990;49.548;9.730;2023-08-01T03:01:44;5.63;;;3.27;;
16735;SDS011;17990;49.548;9.730;2023-08-01T03:04:12;10.23;;;3.40;;
16735;SDS011;17990;49.548;9.730;2023-08-01T03:06:40;5.83;;;3.20;;
16735;SDS011;17990;49.548;9.730;2023-08-01T03:09:06;5.23;;;3.17;;
16735;SDS011;17990;49.548;9.730;2023-08-01T03:11:33;6.03;;;3.47;;
16735;SDS011;17990;49.548;9.730;2023-08-01T03:14:01;6.30;;;3.47;;
16735;SDS011;17990;49.548;9.730;2023-08-01T03:16:29;3.93;;;2.97;;
16735;SDS011;17990;49.548;9.730;2023-08-01T03:18:56;5.80;;;3.20;;
16735;SDS011;17990;49.548;9.730;2023-08-01T03:21:25;5.67;;;3.33;;
16735;SDS011;17990;49.548;9.730;2023-08-01T03:23:52;5.53;;;3.00;;
16735;SDS011;17990;49.548;9.730;2023-08-01T03:26:19;6.87;;;3.33;;
16735;SDS011;17990;49.548;9.730;2023-08-01T03:28:45;5.93;;;3.50;;
16735;SDS011;17990;49.548;9.730;2023-08-01T03:31:12;8.33;;;3.10;;
16735;SDS011;17990;49.548;9.730;2023-08-01T03:33:40;6.03;;;3.13;;
16735;SDS011;17990;49.548;9.730;2023-08-01T03:36:06;9.90;;;3.40;;
16735;SDS011;17990;49.548;9.730;2023-08-01T03:38:34;5.70;;;3.00;;
16735;SDS011;17990;49.548;9.730;2023-08-01T03:41:01;6.57;;;3.20;;
16735;SDS011;17990;49.548;9.730;2023-08-01T03:43:29;7.77;;;3.77;;
16735;SDS011;17990;49.548;9.730;2023-08-01T03:45:55;8.37;;;3.20;;
16735;SDS011;17990;49.548;9.730;2023-08-01T03:48:22;7.33;;;2.87;;
16735;SDS011;17990;49.548;9.730;2023-08-01T03:50:49;6.27;;;3.03;;
16735;SDS011;17990;49.548;9.730;2023-08-01T03:53:15;6.37;;;3.33;;
16735;SDS011;17990;49.548;9.730;2023-08-01T03:55:44;6.00;;;3.20;;
16735;SDS011;17990;49.548;9.730;2023-08-01T03:58:13;5.73;;;3.50;;
16735;SDS011;17990;49.548;9.730;2023-08-01T04:00:40;5.73;;;3.40;;
16735;SDS011;17990;49.548;9.730;2023-08-01T04:03:06;5.93;;;3.33;;
16735;SDS011;17990;49.548;9.730;2023-08-01T04:05:33;8.73;;;3.90;;
16735;SDS011;17990;49.548;9.730;2023-08-01T04:08:00;7.87;;;3.20;;
16735;SDS011;17990;49.548;9.730;2023-08-01T04:10:27;5.77;;;3.40;;
16735;SDS011;17990;49.548;9.730;2023-08-01T04:12:55;5.77;;;3.03;;
16735;SDS011;17990;49.548;9.730;2023-08-01T04:15:22;7.43;;;3.03;;
16735;SDS011;17990;49.548;9.730;2023-08-01T04:17:49;7.40;;;3.27;;
16735;SDS011;17990;49.548;9.730;2023-08-01T04:20:16;6.37;;;3.17;;
16735;SDS011;17990;49.548;9.730;2023-08-01T04:22:42;5.90;;;3.00;;
16735;SDS011;17990;49.548;9.730;2023-08-01T04:25:09;5.70;;;3.40;;
16735;SDS011;17990;49.548;9.730;2023-08-01T04:27:36;7.00;;;3.57;;
16735;SDS011;17990;49.548;9.730;2023-08-01T04:30:04;7.07;;;3.30;;
16735;SDS011;17990;49.548;9.730;2023-08-01T04:32:32;3.33;;;2.83;;
16735;SDS011;17990;49.548;9.730;2023-08-01T04:34:59;7.10;;;3.63;;
16735;SDS011;17990;49.548;9.730;2023-08-01T04:37:25;6.53;;;3.30;;
16735;SDS011;17990;49.548;9.730;2023-08-01T04:39:52;6.67;;;3.47;;
16735;SDS011;17990;49.548;9.730;2023-08-01T04:42:19;6.10;;;3.40;;
16735;SDS011;17990;49.548;9.730;2023-08-01T04:44:45;4.83;;;3.20;;
16735;SDS011;17990;49.548;9.730;2023-08-01T04:47:14;6.37;;;3.27;;
16735;SDS011;17990;49.548;9.730;2023-08-01T04:49:40;6.10;;;3.53;;
16735;SDS011;17990;49.548;9.730;2023-08-01T04:52:07;7.20;;;3.40;;
16735;SDS011;17990;49.548;9.730;2023-08-01T04:54:34;7.17;;;3.47;;
16735;SDS011;17990;49.548;9.730;2023-08-01T04:57:01;10.50;;;3.33;;
16735;SDS011;17990;49.548;9.730;2023-08-01T04:59:27;8.53;;;3.30;;
16735;SDS011;17990;49.548;9.730;2023-08-01T05:01:54;6.90;;;3.40;;
16735;SDS011;17990;49.548;9.730;2023-08-01T05:04:22;5.57;;;2.80;;
16735;SDS011;17990;49.548;9.730;2023-08-01T05:06:50;6.87;;;3.67;;
16735;SDS011;17990;49.548;9.730;2023-08-01T05:09:16;7.63;;;3.17;;
16735;SDS011;17990;49.548;9.730;2023-08-01T05:11:43;6.53;;;2.93;;
16735;SDS011;17990;49.548;9.730;2023-08-01T05:14:10;6.50;;;3.60;;
16735;SDS011;17990;49.548;9.730;2023-08-01T05:16:36;6.03;;;3.60;;
16735;SDS011;17990;49.548;9.730;2023-08-01T05:19:03;7.73;;;3.73;;
16735;SDS011;17990;49.548;9.730;2023-08-01T05:21:31;6.70;;;3.37;;
16735;SDS011;17990;49.548;9.730;2023-08-01T05:23:58;10.43;;;3.40;;
16735;SDS011;17990;49.548;9.730;2023-08-01T05:26:24;6.60;;;3.27;;
16735;SDS011;17990;49.548;9.730;2023-08-01T05:28:51;8.67;;;3.50;;
16735;SDS011;17990;49.548;9.730;2023-08-01T05:31:18;10.47;;;3.67;;
16735;SDS011;17990;49.548;9.730;2023-08-01T05:33:44;5.17;;;3.17;;
16735;SDS011;17990;49.548;9.730;2023-08-01T05:36:11;8.03;;;3.60;;
16735;SDS011;17990;49.548;9.730;2023-08-01T05:38:39;7.47;;;3.43;;
16735;SDS011;17990;49.548;9.730;2023-08-01T05:41:06;9.93;;;3.77;;
16735;SDS011;17990;49.548;9.730;2023-08-01T05:43:33;5.97;;;3.50;;
16735;SDS011;17990;49.548;9.730;2023-08-01T05:45:59;5.43;;;3.53;;
16735;SDS011;17990;49.548;9.730;2023-08-01T05:48:26;7.07;;;3.60;;
16735;SDS011;17990;49.548;9.730;2023-08-01T05:50:53;8.67;;;3.87;;
16735;SDS011;17990;49.548;9.730;2023-08-01T05:53:20;7.83;;;3.40;;
16735;SDS011;17990;49.548;9.730;2023-08-01T05:55:48;6.70;;;3.63;;
16735;SDS011;17990;49.548;9.730;2023-08-01T05:58:15;7.13;;;3.50;;
16735;SDS011;17990;49.548;9.730;2023-08-01T06:00:42;5.77;;;3.60;;
16735;SDS011;17990;49.548;9.730;2023-08-01T06:03:09;8.37;;;4.07;;
16735;SDS011;17990;49.548;9.730;2023-08-01T06:05:36;8.67;;;3.90;;
16735;SDS011;17990;49.548;9.730;2023-08-01T06:08:03;6.70;;;3.60;;
16735;SDS011;17990;49.548;9.730;2023-08-01T06:10:31;4.80;;;3.13;;
16735;SDS011;17990;49.548;9.730;2023-08-01T06:12:59;7.50;;;3.40;;
16735;SDS011;17990;49.548;9.730;2023-08-01T06:15:26;7.30;;;3.40;;
16735;SDS011;17990;49.548;9.730;2023-08-01T06:17:53;6.30;;;3.27;;
16735;SDS011;17990;49.548;9.730;2023-08-01T06:20:19;5.63;;;3.07;;
16735;SDS011;17990;49.548;9.730;2023-08-01T06:22:46;5.03;;;3.33;;
16735;SDS011;17990;49.548;9.730;2023-08-01T06:25:13;9.00;;;3.57;;
16735;SDS011;17990;49.548;9.730;2023-08-01T06:27:40;8.53;;;3.30;;
16735;SDS011;17990;49.548;9.730;2023-08-01T06:30:08;7.60;;;3.70;;
16735;SDS011;17990;49.548;9.730;2023-08-01T06:32:36;9.63;;;4.60;;
16735;SDS011;17990;49.548;9.730;2023-08-01T06:35:02;6.63;;;3.50;;
16735;SDS011;17990;49.548;9.730;2023-08-01T06:37:30;9.33;;;4.03;;
16735;SDS011;17990;49.548;9.730;2023-08-01T06:39:57;5.17;;;3.47;;
16735;SDS011;17990;49.548;9.730;2023-08-01T06:42:24;7.13;;;3.60;;
16735;SDS011;17990;49.548;9.730;2023-08-01T06:44:51;7.53;;;3.80;;
16735;SDS011;17990;49.548;9.730;2023-08-01T06:47:19;9.43;;;4.27;;
16735;SDS011;17990;49.548;9.730;2023-08-01T06:49:45;9.43;;;4.17;;
16735;SDS011;17990;49.548;9.730;2023-08-01T06:52:12;6.23;;;3.90;;
16735;SDS011;17990;49.548;9.730;2023-08-01T06:54:39;4.07;;;3.10;;
16735;SDS011;17990;49.548;9.730;2023-08-01T06:57:06;7.50;;;3.90;;
16735;SDS011;17990;49.548;9.730;2023-08-01T06:59:32;6.80;;;3.40;;
16735;SDS011;17990;49.548;9.730;2023-08-01T07:02:00;7.67;;;3.20;;
16735;SDS011;17990;49.548;9.730;2023-08-01T07:04:28;7.30;;;3.27;;
16735;SDS011;17990;49.548;9.730;2023-08-01T07:06:55;5.83;;;3.30;;
16735;SDS011;17990;49.548;9.730;2023-08-01T07:09:21;5.10;;;3.10;;
16735;SDS011;17990;49.548;9.730;2023-08-01T07:11:48;6.40;;;3.07;;
16735;SDS011;17990;49.548;9.730;2023-08-01T07:14:15;4.83;;;3.40;;
16735;SDS011;17990;49.548;9.730;2023-08-01T07:16:41;6.67;;;3.40;;
16735;SDS011;17990;49.548;9.730;2023-08-01T07:19:08;4.70;;;3.03;;
16735;SDS011;17990;49.548;9.730;2023-08-01T07:21:36;4.63;;;2.80;;
16735;SDS011;17990;49.548;9.730;2023-08-01T07:24:03;4.23;;;2.83;;
16735;SDS011;17990;49.548;9.730;2023-08-01T07:26:31;4.97;;;3.10;;
16735;SDS011;17990;49.548;9.730;2023-08-01T07:28:57;4.03;;;2.90;;
16735;SDS011;17990;49.548;9.730;2023-08-01T07:31:24;5.17;;;2.47;;
16735;SDS011;17990;49.548;9.730;2023-08-01T07:33:51;4.93;;;2.27;;
16735;SDS011;17990;49.548;9.730;2023-08-01T07:36:18;5.40;;;2.40;;
16735;SDS011;17990;49.548;9.730;2023-08-01T07:38:48;3.50;;;1.90;;
16735;SDS011;17990;49.548;9.730;2023-08-01T07:41:14;2.60;;;1.87;;
16735;SDS011;17990;49.548;9.730;2023-08-01T07:43:41;3.07;;;1.97;;
16735;SDS011;17990;49.548;9.730;2023-08-01T07:46:08;4.47;;;1.93;;
16735;SDS011;17990;49.548;9.730;2023-08-01T07:48:36;2.63;;;1.90;;
16735;SDS011;17990;49.548;9.730;2023-08-01T07:51:03;5.17;;;4.03;;
16735;SDS011;17990;49.548;9.730;2023-08-01T07:53:32;2.87;;;2.10;;
16735;SDS011;17990;49.548;9.730;2023-08-01T07:56:00;2.93;;;1.70;;
16735;SDS011;17990;49.548;9.730;2023-08-01T07:58:27;3.57;;;1.70;;
16735;SDS011;17990;49.548;9.730;2023-08-01T08:00:54;2.80;;;1.50;;
16735;SDS011;17990;49.548;9.730;2023-08-01T08:03:21;2.60;;;1.80;;
16735;SDS011;17990;49.548;9.730;2023-08-01T08:05:48;2.30;;;1.43;;
16735;SDS011;17990;49.548;9.730;2023-08-01T08:08:15;4.23;;;1.70;;
16735;SDS011;17990;49.548;9.730;2023-08-01T08:10:42;1.67;;;1.20;;
16735;SDS011;17990;49.548;9.730;2023-08-01T08:13:10;2.37;;;1.33;;
16735;SDS011;17990;49.548;9.730;2023-08-01T08:15:36;2.07;;;1.10;;
16735;SDS011;17990;49.548;9.730;2023-08-01T08:18:03;3.43;;;1.30;;
16735;SDS011;17990;49.548;9.730;2023-08-01T08:20:30;2.93;;;1.37;;
16735;SDS011;17990;49.548;9.730;2023-08-01T08:22:57;1.70;;;1.20;;
16735;SDS011;17990;49.548;9.730;2023-08-01T08:25:23;1.53;;;1.00;;
16735;SDS011;17990;49.548;9.730;2023-08-01T08:27:50;2.50;;;1.60;;
16735;SDS011;17990;49.548;9.730;2023-08-01T08:30:18;3.17;;;1.50;;
16735;SDS011;17990;49.548;9.730;2023-08-01T08:32:45;2.20;;;1.40;;
16735;SDS011;17990;49.548;9.730;2023-08-01T08:35:12;2.67;;;1.30;;
16735;SDS011;17990;49.548;9.730;2023-08-01T08:37:38;3.80;;;1.47;;
16735;SDS011;17990;49.548;9.730;2023-08-01T08:40:05;2.03;;;1.47;;
16735;SDS011;17990;49.548;9.730;2023-08-01T08:42:33;2.30;;;1.37;;
16735;SDS011;17990;49.548;9.730;2023-08-01T08:45:00;1.70;;;1.30;;
16735;SDS011;17990;49.548;9.730;2023-08-01T08:47:29;2.90;;;1.80;;
16735;SDS011;17990;49.548;9.730;2023-08-01T08:49:57;2.43;;;1.40;;
16735;SDS011;17990;49.548;9.730;2023-08-01T08:52:24;1.60;;;1.37;;
16735;SDS011;17990;49.548;9.730;2023-08-01T08:54:52;2.00;;;1.40;;
16735;SDS011;17990;49.548;9.730;2023-08-01T08:57:19;1.20;;;1.00;;
16735;SDS011;17990;49.548;9.730;2023-08-01T08:59:47;1.50;;;1.10;;
16735;SDS011;17990;49.548;9.730;2023-08-01T09:02:15;1.53;;;1.17;;
16735;SDS011;17990;49.548;9.730;2023-08-01T09:04:43;1.23;;;1.10;;
16735;SDS011;17990;49.548;9.730;2023-08-01T09:07:10;3.60;;;1.20;;
16735;SDS011;17990;49.548;9.730;2023-08-01T09:09:39;2.10;;;1.53;;
16735;SDS011;17990;49.548;9.730;2023-08-01T09:12:06;1.60;;;1.13;;
16735;SDS011;17990;49.548;9.730;2023-08-01T09:14:35;1.63;;;1.30;;
16735;SDS011;17990;49.548;9.730;2023-08-01T09:17:05;1.97;;;1.10;;
16735;SDS011;17990;49.548;9.730;2023-08-01T09:19:33;1.53;;;1.10;;
16735;SDS011;17990;49.548;9.730;2023-08-01T09:22:01;1.52;;;1.15;;
16735;SDS011;17990;49.548;9.730;2023-08-01T09:24:28;3.13;;;1.20;;
16735;SDS011;17990;49.548;9.730;2023-08-01T09:27:01;1.63;;;1.00;;
16735;SDS011;17990;49.548;9.730;2023-08-01T09:29:29;1.58;;;1.10;;
16735;SDS011;17990;49.548;9.730;2023-08-01T09:31:57;0.95;;;0.80;;
16735;SDS011;17990;49.548;9.730;2023-08-01T09:34:25;1.30;;;0.80;;
16735;SDS011;17990;49.548;9.730;2023-08-01T09:36:57;1.30;;;1.00;;
16735;SDS011;17990;49.548;9.730;2023-08-01T09:39:26;1.60;;;1.00;;
16735;SDS011;17990;49.548;9.730;2023-08-01T09:41:56;1.00;;;0.90;;
16735;SDS011;17990;49.548;9.730;2023-08-01T09:44:23;1.20;;;1.05;;
16735;SDS011;17990;49.548;9.730;2023-08-01T09:46:55;2.85;;;1.02;;
16735;SDS011;17990;49.548;9.730;2023-08-01T09:49:22;1.35;;;1.00;;
16735;SDS011;17990;49.548;9.730;2023-08-01T09:51:50;1.23;;;1.08;;
16735;SDS011;17990;49.548;9.730;2023-08-01T09:54:17;1.60;;;1.00;;
16735;SDS011;17990;49.548;9.730;2023-08-01T09:56:46;2.63;;;1.00;;
16735;SDS011;17990;49.548;9.730;2023-08-01T09:59:15;1.90;;;0.80;;
16735;SDS011;17990;49.548;9.730;2023-08-01T10:01:45;1.83;;;0.80;;
16735;SDS011;17990;49.548;9.730;2023-08-01T10:04:15;0.70;;;0.47;;
16735;SDS011;17990;49.548;9.730;2023-08-01T10:06:45;1.50;;;0.90;;
16735;SDS011;17990;49.548;9.730;2023-08-01T10:09:15;0.97;;;0.80;;
16735;SDS011;17990;49.548;9.730;2023-08-01T10:11:43;1.50;;;0.80;;
16735;SDS011;17990;49.548;9.730;2023-08-01T10:14:11;2.47;;;0.70;;
16735;SDS011;17990;49.548;9.730;2023-08-01T10:16:38;0.97;;;0.50;;
16735;SDS011;17990;49.548;9.730;2023-08-01T10:19:08;2.70;;;0.80;;
16735;SDS011;17990;49.548;9.730;2023-08-01T10:21:37;2.75;;;1.05;;
16735;SDS011;17990;49.548;9.730;2023-08-01T10:24:04;3.35;;;0.80;;
16735;SDS011;17990;49.548;9.730;2023-08-01T10:26:33;0.57;;;0.55;;
16735;SDS011;17990;49.548;9.730;2023-08-01T10:29:00;0.60;;;0.60;;
16735;SDS011;17990;49.548;9.730;2023-08-01T10:31:28;1.38;;;0.70;;
16735;SDS011;17990;49.548;9.730;2023-08-01T10:34:03;1.30;;;0.70;;
16735;SDS011;17990;49.548;9.730;2023-08-01T10:36:31;2.00;;;0.70;;
16735;SDS011;17990;49.548;9.730;2023-08-01T10:38:59;1.30;;;0.80;;
16735;SDS011;17990;49.548;9.730;2023-08-01T10:41:27;1.17;;;0.60;;
16735;SDS011;17990;49.548;9.730;2023-08-01T10:44:05;2.92;;;0.98;;
16735;SDS011;17990;49.548;9.730;2023-08-01T10:46:46;1.00;;;0.70;;
16735;SDS011;17990;49.548;9.730;2023-08-01T10:49:14;0.90;;;0.60;;
16735;SDS011;17990;49.548;9.730;2023-08-01T10:51:42;1.30;;;0.80;;
16735;SDS011;17990;49.548;9.730;2023-08-01T10:54:17;1.75;;;0.90;;
16735;SDS011;17990;49.548;9.730;2023-08-01T10:56:46;1.27;;;0.80;;
16735;SDS011;17990;49.548;9.730;2023-08-01T10:59:13;1.25;;;0.60;;
16735;SDS011;17990;49.548;9.730;2023-08-01T11:01:45;1.65;;;0.63;;
16735;SDS011;17990;49.548;9.730;2023-08-01T11:04:13;4.10;;;0.80;;
16735;SDS011;17990;49.548;9.730;2023-08-01T11:06:44;3.53;;;0.80;;
16735;SDS011;17990;49.548;9.730;2023-08-01T11:09:15;0.88;;;0.60;;
16735;SDS011;17990;49.548;9.730;2023-08-01T11:11:43;2.38;;;0.80;;
16735;SDS011;17990;49.548;9.730;2023-08-01T11:14:11;1.83;;;0.77;;
16735;SDS011;17990;49.548;9.730;2023-08-01T11:16:38;1.10;;;0.50;;
16735;SDS011;17990;49.548;9.730;2023-08-01T11:19:06;1.45;;;0.77;;
16735;SDS011;17990;49.548;9.730;2023-08-01T11:21:44;0.90;;;0.70;;
16735;SDS011;17990;49.548;9.730;2023-08-01T11:24:10;1.20;;;0.75;;
16735;SDS011;17990;49.548;9.730;2023-08-01T11:26:39;1.05;;;0.55;;
16735;SDS011;17990;49.548;9.730;2023-08-01T11:29:07;1.15;;;0.80;;
16735;SDS011;17990;49.548;9.730;2023-08-01T11:31:35;3.15;;;0.80;;
16735;SDS011;17990;49.548;9.730;2023-08-01T11:34:01;1.67;;;0.65;;
16735;SDS011;17990;49.548;9.730;2023-08-01T11:36:30;2.05;;;0.55;;
16735;SDS011;17990;49.548;9.730;2023-08-01T11:38:57;2.65;;;0.80;;
16735;SDS011;17990;49.548;9.730;2023-08-01T11:41:25;0.95;;;0.80;;
16735;SDS011;17990;49.548;9.730;2023-08-01T11:43:53;0.93;;;0.80;;
16735;SDS011;17990;49.548;9.730;2023-08-01T11:46:20;3.70;;;1.00;;
16735;SDS011;17990;49.548;9.730;2023-08-01T11:48:56;1.10;;;0.60;;
16735;SDS011;17990;49.548;9.730;2023-08-01T11:51:23;0.95;;;0.73;;
16735;SDS011;17990;49.548;9.730;2023-08-01T11:53:58;1.02;;;0.65;;
16735;SDS011;17990;49.548;9.730;2023-08-01T11:56:26;1.73;;;0.60;;
16735;SDS011;17990;49.548;9.730;2023-08-01T11:58:52;0.70;;;0.60;;
16735;SDS011;17990;49.548;9.730;2023-08-01T12:01:19;2.35;;;0.70;;
16735;SDS011;17990;49.548;9.730;2023-08-01T12:03:47;3.47;;;0.70;;
16735;SDS011;17990;49.548;9.730;2023-08-01T12:06:15;1.85;;;0.57;;
16735;SDS011;17990;49.548;9.730;2023-08-01T12:08:46;1.58;;;0.70;;
16735;SDS011;17990;49.548;9.730;2023-08-01T12:11:21;0.50;;;0.40;;
16735;SDS011;17990;49.548;9.730;2023-08-01T12:13:59;0.93;;;0.60;;
16735;SDS011;17990;49.548;9.730;2023-08-01T12:16:27;2.25;;;0.77;;
16735;SDS011;17990;49.548;9.730;2023-08-01T12:18:54;1.17;;;0.70;;
16735;SDS011;17990;49.548;9.730;2023-08-01T12:21:21;1.95;;;0.80;;
16735;SDS011;17990;49.548;9.730;2023-08-01T12:23:48;2.90;;;0.93;;
16735;SDS011;17990;49.548;9.730;2023-08-01T12:26:14;5.13;;;1.52;;
16735;SDS011;17990;49.548;9.730;2023-08-01T12:28:43;1.90;;;0.77;;
16735;SDS011;17990;49.548;9.730;2023-08-01T12:31:09;1.73;;;0.70;;
16735;SDS011;17990;49.548;9.730;2023-08-01T12:33:36;4.32;;;0.90;;
16735;SDS011;17990;49.548;9.730;2023-08-01T12:36:03;1.65;;;0.80;;
16735;SDS011;17990;49.548;9.730;2023-08-01T12:38:30;1.55;;;0.63;;
16735;SDS011;17990;49.548;9.730;2023-08-01T12:40:57;1.65;;;0.80;;
16735;SDS011;17990;49.548;9.730;2023-08-01T12:43:23;1.17;;;0.68;;
16735;SDS011;17990;49.548;9.730;2023-08-01T12:45:51;1.23;;;0.73;;
16735;SDS011;17990;49.548;9.730;2023-08-01T12:48:18;1.60;;;0.80;;
16735;SDS011;17990;49.548;9.730;2023-08-01T12:50:45;3.10;;;0.95;;
16735;SDS011;17990;49.548;9.730;2023-08-01T12:53:13;1.40;;;0.90;;
16735;SDS011;17990;49.548;9.730;2023-08-01T12:55:42;1.73;;;0.80;;
16735;SDS011;17990;49.548;9.730;2023-08-01T12:58:09;0.95;;;0.75;;
16735;SDS011;17990;49.548;9.730;2023-08-01T13:00:35;2.67;;;1.10;;
16735;SDS011;17990;49.548;9.730;2023-08-01T13:03:04;1.40;;;0.80;;
16735;SDS011;17990;49.548;9.730;2023-08-01T13:05:31;0.95;;;0.60;;
16735;SDS011;17990;49.548;9.730;2023-08-01T13:08:00;2.50;;;0.70;;
16735;SDS011;17990;49.548;9.730;2023-08-01T13:10:29;1.10;;;0.73;;
16735;SDS011;17990;49.548;9.730;2023-08-01T13:12:56;1.83;;;0.75;;
16735;SDS011;17990;49.548;9.730;2023-08-01T13:15:22;1.35;;;0.80;;
16735;SDS011;17990;49.548;9.730;2023-08-01T13:17:49;2.17;;;0.80;;
16735;SDS011;17990;49.548;9.730;2023-08-01T13:20:18;0.65;;;0.60;;
16735;SDS011;17990;49.548;9.730;2023-08-01T13:22:45;2.08;;;0.80;;
16735;SDS011;17990;49.548;9.730;2023-08-01T13:25:13;4.38;;;1.50;;
16735;SDS011;17990;49.548;9.730;2023-08-01T13:27:41;1.70;;;0.80;;
16735;SDS011;17990;49.548;9.730;2023-08-01T13:30:08;1.17;;;0.73;;
16735;SDS011;17990;49.548;9.730;2023-08-01T13:32:39;1.48;;;0.70;;
16735;SDS011;17990;49.548;9.730;2023-08-01T13:35:06;1.25;;;0.73;;
16735;SDS011;17990;49.548;9.730;2023-08-01T13:37:34;3.15;;;1.55;;
16735;SDS011;17990;49.548;9.730;2023-08-01T13:40:01;1.20;;;0.90;;
16735;SDS011;17990;49.548;9.730;2023-08-01T13:42:28;1.45;;;0.70;;
16735;SDS011;17990;49.548;9.730;2023-08-01T13:44:55;1.77;;;1.02;;
16735;SDS011;17990;49.548;9.730;2023-08-01T13:47:22;1.30;;;0.80;;
16735;SDS011;17990;49.548;9.730;2023-08-01T13:49:49;2.67;;;0.80;;
16735;SDS011;17990;49.548;9.730;2023-08-01T13:52:16;2.38;;;0.80;;
16735;SDS011;17990;49.548;9.730;2023-08-01T13:54:44;1.83;;;0.85;;
16735;SDS011;17990;49.548;9.730;2023-08-01T13:57:10;1.17;;;0.65;;
16735;SDS011;17990;49.548;9.730;2023-08-01T13:59:37;1.05;;;0.70;;
16735;SDS011;17990;49.548;9.730;2023-08-01T14:02:04;3.38;;;1.00;;
16735;SDS011;17990;49.548;9.730;2023-08-01T14:04:31;1.45;;;0.90;;
16735;SDS011;17990;49.548;9.730;2023-08-01T14:06:58;1.50;;;0.80;;
16735;SDS011;17990;49.548;9.730;2023-08-01T14:09:25;1.77;;;0.85;;
16735;SDS011;17990;49.548;9.730;2023-08-01T14:11:53;1.23;;;0.80;;
16735;SDS011;17990;49.548;9.730;2023-08-01T14:14:19;1.42;;;1.05;;
16735;SDS011;17990;49.548;9.730;2023-08-01T14:16:47;2.35;;;1.00;;
16735;SDS011;17990;49.548;9.730;2023-08-01T14:19:14;1.25;;;0.90;;
16735;SDS011;17990;49.548;9.730;2023-08-01T14:21:40;1.65;;;0.90;;
16735;SDS011;17990;49.548;9.730;2023-08-01T14:24:07;3.28;;;1.20;;
16735;SDS011;17990;49.548;9.730;2023-08-01T14:26:34;2.88;;;0.90;;
16735;SDS011;17990;49.548;9.730;2023-08-01T14:29:02;1.73;;;1.10;;
16735;SDS011;17990;49.548;9.730;2023-08-01T14:31:29;2.50;;;1.00;;
16735;SDS011;17990;49.548;9.730;2023-08-01T14:33:55;4.80;;;2.22;;
16735;SDS011;17990;49.548;9.730;2023-08-01T14:36:22;1.25;;;0.70;;
16735;SDS011;17990;49.548;9.730;2023-08-01T14:38:49;4.22;;;1.10;;
16735;SDS011;17990;49.548;9.730;2023-08-01T14:41:19;2.65;;;0.93;;
16735;SDS011;17990;49.548;9.730;2023-08-01T14:43:46;1.45;;;0.63;;
16735;SDS011;17990;49.548;9.730;2023-08-01T14:46:14;1.17;;;0.82;;
16735;SDS011;17990;49.548;9.730;2023-08-01T14:48:41;3.40;;;1.30;;